sensor_id;sensor_type;location;lat;lon;timestamp;temperature;humidity
28863;DHT22;15994;51.796;13.006;2023-01-19T00:02:22;-3.00;99.90
28863;DHT22;15994;51.796;13.006;2023-01-19T00:04:49;-3.00;99.90
28863;DHT22;15994;51.796;13.006;2023-01-19T00:07:16;-3.00;99.90
28863;DHT22;15994;51.796;13.006;2023-01-19T00:09:42;-2.90;99.90
28863;DHT22;15994;51.796;13.006;2023-01-19T00:12:09;-2.90;99.90
28863;DHT22;15994;51.796;13.006;2023-01-19T00:14:35;-2.90;99.90
28863;DHT22;15994;51.796;13.006;2023-01-19T00:17:02;-2.80;99.90
28863;DHT22;15994;51.796;13.006;2023-01-19T00:19:29;-2.80;99.90
28863;DHT22;15994;51.796;13.006;2023-01-19T00:21:55;-2.80;99.90
28863;DHT22;15994;51.796;13.006;2023-01-19T00:24:22;-2.90;99.90
28863;DHT22;15994;51.796;13.006;2023-01-19T00:26:48;-2.90;99.90
28863;DHT22;15994;51.796;13.006;2023-01-19T00:29:15;-3.00;99.90
28863;DHT22;15994;51.796;13.006;2023-01-19T00:31:41;-3.00;99.90
28863;DHT22;15994;51.796;13.006;2023-01-19T00:34:08;-3.00;99.90
28863;DHT22;15994;51.796;13.006;2023-01-19T00:36:35;-3.10;99.90
28863;DHT22;15994;51.796;13.006;2023-01-19T00:39:01;-3.10;99.90
28863;DHT22;15994;51.796;13.006;2023-01-19T00:41:28;-3.10;99.90
28863;DHT22;15994;51.796;13.006;2023-01-19T00:44:09;-3.00;99.90
28863;DHT22;15994;51.796;13.006;2023-01-19T00:46:36;-3.00;99.90
28863;DHT22;15994;51.796;13.006;2023-01-19T00:49:03;-3.10;99.90
28863;DHT22;15994;51.796;13.006;2023-01-19T00:51:30;-3.00;99.90
28863;DHT22;15994;51.796;13.006;2023-01-19T00:53:56;-3.00;99.90
28863;DHT22;15994;51.796;13.006;2023-01-19T00:56:29;-3.00;99.90
28863;DHT22;15994;51.796;13.006;2023-01-19T00:58:56;-3.00;99.90
28863;DHT22;15994;51.796;13.006;2023-01-19T01:01:22;-3.20;99.90
28863;DHT22;15994;51.796;13.006;2023-01-19T01:03:49;-2.80;99.90
28863;DHT22;15994;51.796;13.006;2023-01-19T01:06:15;-3.20;99.90
28863;DHT22;15994;51.796;13.006;2023-01-19T01:08:41;-3.50;99.90
28863;DHT22;15994;51.796;13.006;2023-01-19T01:11:08;-3.40;99.90
28863;DHT22;15994;51.796;13.006;2023-01-19T01:13:34;-3.40;99.90
28863;DHT22;15994;51.796;13.006;2023-01-19T01:16:01;-3.40;99.90
28863;DHT22;15994;51.796;13.006;2023-01-19T01:18:27;-3.40;99.90
28863;DHT22;15994;51.796;13.006;2023-01-19T01:21:04;-3.30;99.90
28863;DHT22;15994;51.796;13.006;2023-01-19T01:23:32;-3.40;99.90
28863;DHT22;15994;51.796;13.006;2023-01-19T01:25:58;-3.40;99.90
28863;DHT22;15994;51.796;13.006;2023-01-19T01:28:25;-3.40;99.90
28863;DHT22;15994;51.796;13.006;2023-01-19T01:30:53;-3.50;99.90
28863;DHT22;15994;51.796;13.006;2023-01-19T01:33:20;-3.50;99.90
28863;DHT22;15994;51.796;13.006;2023-01-19T01:35:48;-3.50;99.90
28863;DHT22;15994;51.796;13.006;2023-01-19T01:38:15;-3.50;99.90
28863;DHT22;15994;51.796;13.006;2023-01-19T01:40:42;-3.50;99.90
28863;DHT22;15994;51.796;13.006;2023-01-19T01:43:12;-3.50;99.90
28863;DHT22;15994;51.796;13.006;2023-01-19T01:45:40;-3.50;99.90
28863;DHT22;15994;51.796;13.006;2023-01-19T01:48:18;-3.50;99.90
28863;DHT22;15994;51.796;13.006;2023-01-19T01:53:44;-3.60;99.90
28863;DHT22;15994;51.796;13.006;2023-01-19T01:56:16;-3.60;99.90
28863;DHT22;15994;51.796;13.006;2023-01-19T01:58:43;-3.60;99.90
28863;DHT22;15994;51.796;13.006;2023-01-19T02:01:10;-3.60;99.90
28863;DHT22;15994;51.796;13.006;2023-01-19T02:03:55;-3.60;99.90
28863;DHT22;15994;51.796;13.006;2023-01-19T02:06:22;-3.50;99.90
28863;DHT22;15994;51.796;13.006;2023-01-19T02:08:53;-3.60;99.90
28863;DHT22;15994;51.796;13.006;2023-01-19T02:11:38;-3.60;99.90
28863;DHT22;15994;51.796;13.006;2023-01-19T02:14:23;-3.60;99.90
28863;DHT22;15994;51.796;13.006;2023-01-19T02:16:49;-3.60;99.90
28863;DHT22;15994;51.796;13.006;2023-01-19T02:19:23;-3.70;99.90
28863;DHT22;15994;51.796;13.006;2023-01-19T02:22:05;-3.70;99.90
28863;DHT22;15994;51.796;13.006;2023-01-19T02:24:32;-3.70;99.90
28863;DHT22;15994;51.796;13.006;2023-01-19T02:26:59;-3.70;99.90
28863;DHT22;15994;51.796;13.006;2023-01-19T02:29:26;-3.70;99.90
28863;DHT22;15994;51.796;13.006;2023-01-19T02:31:53;-3.70;99.90
28863;DHT22;15994;51.796;13.006;2023-01-19T02:34:21;-3.70;99.90
28863;DHT22;15994;51.796;13.006;2023-01-19T02:36:55;-3.70;99.90
28863;DHT22;15994;51.796;13.006;2023-01-19T02:39:26;-3.70;99.90
28863;DHT22;15994;51.796;13.006;2023-01-19T02:41:58;-3.70;99.90
28863;DHT22;15994;51.796;13.006;2023-01-19T02:44:28;-3.60;99.90
28863;DHT22;15994;51.796;13.006;2023-01-19T02:46:55;-3.50;99.90
28863;DHT22;15994;51.796;13.006;2023-01-19T02:49:22;-3.40;99.90
28863;DHT22;15994;51.796;13.006;2023-01-19T02:51:52;-3.50;99.90
28863;DHT22;15994;51.796;13.006;2023-01-19T02:57:12;-3.60;99.90
28863;DHT22;15994;51.796;13.006;2023-01-19T03:00:04;-3.60;99.90
28863;DHT22;15994;51.796;13.006;2023-01-19T03:05:21;-3.60;99.90
28863;DHT22;15994;51.796;13.006;2023-01-19T03:08:07;-3.70;99.90
28863;DHT22;15994;51.796;13.006;2023-01-19T03:11:08;-3.70;99.90
28863;DHT22;15994;51.796;13.006;2023-01-19T03:13:43;-3.70;99.90
28863;DHT22;15994;51.796;13.006;2023-01-19T03:16:19;-3.70;99.90
28863;DHT22;15994;51.796;13.006;2023-01-19T03:18:50;-3.70;99.90
28863;DHT22;15994;51.796;13.006;2023-01-19T03:21:18;-3.80;99.90
28863;DHT22;15994;51.796;13.006;2023-01-19T03:23:48;-3.80;99.90
28863;DHT22;15994;51.796;13.006;2023-01-19T03:26:21;-3.80;99.90
28863;DHT22;15994;51.796;13.006;2023-01-19T03:28:50;-3.90;99.90
28863;DHT22;15994;51.796;13.006;2023-01-19T03:31:21;-3.90;99.90
28863;DHT22;15994;51.796;13.006;2023-01-19T03:33:54;-3.90;99.90
28863;DHT22;15994;51.796;13.006;2023-01-19T03:36:30;-3.90;99.90
28863;DHT22;15994;51.796;13.006;2023-01-19T03:38:59;-3.90;99.90
28863;DHT22;15994;51.796;13.006;2023-01-19T03:41:27;-3.90;99.90
28863;DHT22;15994;51.796;13.006;2023-01-19T03:43:55;-3.90;99.90
28863;DHT22;15994;51.796;13.006;2023-01-19T03:46:23;-3.90;99.90
28863;DHT22;15994;51.796;13.006;2023-01-19T03:48:51;-3.90;99.90
28863;DHT22;15994;51.796;13.006;2023-01-19T03:51:18;-3.90;99.90
28863;DHT22;15994;51.796;13.006;2023-01-19T03:53:45;-3.90;99.90
28863;DHT22;15994;51.796;13.006;2023-01-19T03:56:18;-3.90;99.90
28863;DHT22;15994;51.796;13.006;2023-01-19T03:58:46;-3.90;99.90
28863;DHT22;15994;51.796;13.006;2023-01-19T04:01:13;-3.90;99.90
28863;DHT22;15994;51.796;13.006;2023-01-19T04:03:40;-4.00;99.90
28863;DHT22;15994;51.796;13.006;2023-01-19T04:06:08;-4.00;99.90
28863;DHT22;15994;51.796;13.006;2023-01-19T04:08:35;-4.00;99.90
28863;DHT22;15994;51.796;13.006;2023-01-19T04:11:02;-4.00;99.90
28863;DHT22;15994;51.796;13.006;2023-01-19T04:13:28;-4.00;99.90
28863;DHT22;15994;51.796;13.006;2023-01-19T04:16:02;-4.00;99.90
28863;DHT22;15994;51.796;13.006;2023-01-19T04:18:30;-4.00;99.90
28863;DHT22;15994;51.796;13.006;2023-01-19T04:21:00;-4.10;99.90
28863;DHT22;15994;51.796;13.006;2023-01-19T04:23:27;-4.00;99.90
28863;DHT22;15994;51.796;13.006;2023-01-19T04:25:58;-4.00;99.90
28863;DHT22;15994;51.796;13.006;2023-01-19T04:28:25;-4.00;99.90
28863;DHT22;15994;51.796;13.006;2023-01-19T04:30:52;-4.00;99.90
28863;DHT22;15994;51.796;13.006;2023-01-19T04:33:19;-4.10;99.90
28863;DHT22;15994;51.796;13.006;2023-01-19T04:35:47;-4.10;99.90
28863;DHT22;15994;51.796;13.006;2023-01-19T04:38:14;-4.10;99.90
28863;DHT22;15994;51.796;13.006;2023-01-19T04:40:41;-4.10;99.90
28863;DHT22;15994;51.796;13.006;2023-01-19T04:43:07;-4.10;99.90
28863;DHT22;15994;51.796;13.006;2023-01-19T04:45:34;-4.10;99.90
28863;DHT22;15994;51.796;13.006;2023-01-19T04:48:01;-4.10;99.90
28863;DHT22;15994;51.796;13.006;2023-01-19T04:50:28;-4.10;99.90
28863;DHT22;15994;51.796;13.006;2023-01-19T04:52:55;-4.10;99.90
28863;DHT22;15994;51.796;13.006;2023-01-19T04:55:22;-4.10;99.90
28863;DHT22;15994;51.796;13.006;2023-01-19T04:57:48;-4.10;99.90
28863;DHT22;15994;51.796;13.006;2023-01-19T05:00:15;-4.10;99.90
28863;DHT22;15994;51.796;13.006;2023-01-19T05:02:42;-4.10;99.90
28863;DHT22;15994;51.796;13.006;2023-01-19T05:05:10;-4.10;99.90
28863;DHT22;15994;51.796;13.006;2023-01-19T05:07:37;-4.10;99.90
28863;DHT22;15994;51.796;13.006;2023-01-19T05:10:05;-4.10;99.90
28863;DHT22;15994;51.796;13.006;2023-01-19T05:12:32;-4.20;99.90
28863;DHT22;15994;51.796;13.006;2023-01-19T05:14:58;-4.20;99.90
28863;DHT22;15994;51.796;13.006;2023-01-19T05:17:25;-4.20;99.90
28863;DHT22;15994;51.796;13.006;2023-01-19T05:19:52;-4.30;99.90
28863;DHT22;15994;51.796;13.006;2023-01-19T05:22:18;-4.30;99.90
28863;DHT22;15994;51.796;13.006;2023-01-19T05:24:45;-4.30;99.90
28863;DHT22;15994;51.796;13.006;2023-01-19T05:27:11;-4.30;99.90
28863;DHT22;15994;51.796;13.006;2023-01-19T05:29:38;-4.30;99.90
28863;DHT22;15994;51.796;13.006;2023-01-19T05:32:04;-4.30;99.90
28863;DHT22;15994;51.796;13.006;2023-01-19T05:34:31;-4.40;99.90
28863;DHT22;15994;51.796;13.006;2023-01-19T05:36:57;-4.40;99.90
28863;DHT22;15994;51.796;13.006;2023-01-19T05:39:24;-4.40;99.90
28863;DHT22;15994;51.796;13.006;2023-01-19T05:41:51;-4.40;99.90
28863;DHT22;15994;51.796;13.006;2023-01-19T05:44:17;-4.40;99.90
28863;DHT22;15994;51.796;13.006;2023-01-19T05:46:44;-4.30;99.90
28863;DHT22;15994;51.796;13.006;2023-01-19T05:49:11;-4.40;99.90
28863;DHT22;15994;51.796;13.006;2023-01-19T05:51:37;-4.40;99.90
28863;DHT22;15994;51.796;13.006;2023-01-19T05:54:05;-4.30;99.90
28863;DHT22;15994;51.796;13.006;2023-01-19T05:56:33;-4.30;99.90
28863;DHT22;15994;51.796;13.006;2023-01-19T05:59:00;-4.30;99.90
28863;DHT22;15994;51.796;13.006;2023-01-19T06:01:27;-4.30;99.90
28863;DHT22;15994;51.796;13.006;2023-01-19T06:03:53;-4.30;99.90
28863;DHT22;15994;51.796;13.006;2023-01-19T06:06:20;-4.30;99.90
28863;DHT22;15994;51.796;13.006;2023-01-19T06:08:46;-4.30;99.90
28863;DHT22;15994;51.796;13.006;2023-01-19T06:11:13;-4.30;99.90
28863;DHT22;15994;51.796;13.006;2023-01-19T06:13:40;-4.30;99.90
28863;DHT22;15994;51.796;13.006;2023-01-19T06:16:06;-4.30;99.90
28863;DHT22;15994;51.796;13.006;2023-01-19T06:18:33;-4.30;99.90
28863;DHT22;15994;51.796;13.006;2023-01-19T06:21:04;-4.30;99.90
28863;DHT22;15994;51.796;13.006;2023-01-19T06:23:32;-4.40;99.90
28863;DHT22;15994;51.796;13.006;2023-01-19T06:25:59;-4.30;99.90
28863;DHT22;15994;51.796;13.006;2023-01-19T06:28:26;-4.30;99.90
28863;DHT22;15994;51.796;13.006;2023-01-19T06:30:54;-4.30;99.90
28863;DHT22;15994;51.796;13.006;2023-01-19T06:33:22;-4.30;99.90
28863;DHT22;15994;51.796;13.006;2023-01-19T06:35:49;-4.30;99.90
28863;DHT22;15994;51.796;13.006;2023-01-19T06:38:16;-4.40;99.90
28863;DHT22;15994;51.796;13.006;2023-01-19T06:40:44;-4.30;99.90
28863;DHT22;15994;51.796;13.006;2023-01-19T06:43:11;-4.40;99.90
28863;DHT22;15994;51.796;13.006;2023-01-19T06:45:38;-4.40;99.90
28863;DHT22;15994;51.796;13.006;2023-01-19T06:48:05;-4.50;99.90
28863;DHT22;15994;51.796;13.006;2023-01-19T06:50:31;-4.50;99.90
28863;DHT22;15994;51.796;13.006;2023-01-19T06:52:58;-4.50;99.90
28863;DHT22;15994;51.796;13.006;2023-01-19T06:55:24;-4.40;99.90
28863;DHT22;15994;51.796;13.006;2023-01-19T06:57:57;-4.40;99.90
28863;DHT22;15994;51.796;13.006;2023-01-19T07:00:24;-4.40;99.90
28863;DHT22;15994;51.796;13.006;2023-01-19T07:02:51;-4.50;99.90
28863;DHT22;15994;51.796;13.006;2023-01-19T07:05:18;-4.50;99.90
28863;DHT22;15994;51.796;13.006;2023-01-19T07:07:51;-4.50;99.90
28863;DHT22;15994;51.796;13.006;2023-01-19T07:10:17;-4.50;99.90
28863;DHT22;15994;51.796;13.006;2023-01-19T07:12:44;-4.50;99.90
28863;DHT22;15994;51.796;13.006;2023-01-19T07:15:12;-4.40;99.90
28863;DHT22;15994;51.796;13.006;2023-01-19T07:17:39;-4.40;99.90
28863;DHT22;15994;51.796;13.006;2023-01-19T07:20:09;-4.40;99.90
28863;DHT22;15994;51.796;13.006;2023-01-19T07:22:37;-4.40;99.90
28863;DHT22;15994;51.796;13.006;2023-01-19T07:25:04;-4.40;99.90
28863;DHT22;15994;51.796;13.006;2023-01-19T07:27:31;-4.40;99.90
28863;DHT22;15994;51.796;13.006;2023-01-19T07:29:57;-4.40;99.90
28863;DHT22;15994;51.796;13.006;2023-01-19T07:32:25;-4.40;99.90
28863;DHT22;15994;51.796;13.006;2023-01-19T07:34:52;-4.30;99.90
28863;DHT22;15994;51.796;13.006;2023-01-19T07:37:19;-4.20;99.90
28863;DHT22;15994;51.796;13.006;2023-01-19T07:39:45;-4.30;99.90
28863;DHT22;15994;51.796;13.006;2023-01-19T07:42:12;-4.20;99.90
28863;DHT22;15994;51.796;13.006;2023-01-19T07:44:39;-4.30;99.90
28863;DHT22;15994;51.796;13.006;2023-01-19T07:47:05;-4.20;99.90
28863;DHT22;15994;51.796;13.006;2023-01-19T07:49:35;-4.20;99.90
28863;DHT22;15994;51.796;13.006;2023-01-19T07:52:02;-4.20;99.90
28863;DHT22;15994;51.796;13.006;2023-01-19T07:54:28;-4.10;99.90
28863;DHT22;15994;51.796;13.006;2023-01-19T07:56:55;-4.10;99.90
28863;DHT22;15994;51.796;13.006;2023-01-19T07:59:22;-4.00;99.90
28863;DHT22;15994;51.796;13.006;2023-01-19T08:01:49;-3.90;99.90
28863;DHT22;15994;51.796;13.006;2023-01-19T08:04:17;-3.90;99.90
28863;DHT22;15994;51.796;13.006;2023-01-19T08:06:44;-3.80;99.90
28863;DHT22;15994;51.796;13.006;2023-01-19T08:09:11;-3.70;99.90
28863;DHT22;15994;51.796;13.006;2023-01-19T08:11:38;-3.60;99.90
28863;DHT22;15994;51.796;13.006;2023-01-19T08:14:04;-3.50;99.90
28863;DHT22;15994;51.796;13.006;2023-01-19T08:16:31;-3.50;99.90
28863;DHT22;15994;51.796;13.006;2023-01-19T08:19:01;-3.40;99.90
28863;DHT22;15994;51.796;13.006;2023-01-19T08:21:39;-3.40;99.90
28863;DHT22;15994;51.796;13.006;2023-01-19T08:27:15;-3.30;99.90
28863;DHT22;15994;51.796;13.006;2023-01-19T08:29:47;-3.30;99.90
28863;DHT22;15994;51.796;13.006;2023-01-19T08:32:18;-3.20;99.90
28863;DHT22;15994;51.796;13.006;2023-01-19T08:35:14;-3.10;99.90
28863;DHT22;15994;51.796;13.006;2023-01-19T08:37:49;-3.00;99.90
28863;DHT22;15994;51.796;13.006;2023-01-19T08:40:21;-2.90;99.90
28863;DHT22;15994;51.796;13.006;2023-01-19T08:42:50;-2.80;99.90
28863;DHT22;15994;51.796;13.006;2023-01-19T08:45:16;-2.80;99.90
28863;DHT22;15994;51.796;13.006;2023-01-19T08:47:46;-2.60;99.90
28863;DHT22;15994;51.796;13.006;2023-01-19T08:50:15;-2.60;99.90
28863;DHT22;15994;51.796;13.006;2023-01-19T08:52:44;-2.60;99.90
28863;DHT22;15994;51.796;13.006;2023-01-19T08:55:15;-2.50;99.90
28863;DHT22;15994;51.796;13.006;2023-01-19T08:57:44;-2.40;99.90
28863;DHT22;15994;51.796;13.006;2023-01-19T09:00:21;-2.40;99.90
28863;DHT22;15994;51.796;13.006;2023-01-19T09:02:50;-2.30;99.90
28863;DHT22;15994;51.796;13.006;2023-01-19T09:05:20;-2.20;99.90
28863;DHT22;15994;51.796;13.006;2023-01-19T09:07:50;-2.20;99.90
28863;DHT22;15994;51.796;13.006;2023-01-19T09:10:18;-2.10;99.90
28863;DHT22;15994;51.796;13.006;2023-01-19T09:12:52;-2.00;99.90
28863;DHT22;15994;51.796;13.006;2023-01-19T09:15:21;-2.00;99.90
28863;DHT22;15994;51.796;13.006;2023-01-19T09:17:51;-1.90;99.90
28863;DHT22;15994;51.796;13.006;2023-01-19T09:20:30;-1.80;99.90
28863;DHT22;15994;51.796;13.006;2023-01-19T09:23:05;-1.70;99.90
28863;DHT22;15994;51.796;13.006;2023-01-19T09:25:41;-1.70;99.90
28863;DHT22;15994;51.796;13.006;2023-01-19T09:28:16;-1.60;99.90
28863;DHT22;15994;51.796;13.006;2023-01-19T09:31:04;-1.50;99.90
28863;DHT22;15994;51.796;13.006;2023-01-19T09:33:32;-1.50;99.90
28863;DHT22;15994;51.796;13.006;2023-01-19T09:35:59;-1.40;99.90
28863;DHT22;15994;51.796;13.006;2023-01-19T09:38:26;-1.40;99.90
28863;DHT22;15994;51.796;13.006;2023-01-19T09:40:57;-1.30;99.90
28863;DHT22;15994;51.796;13.006;2023-01-19T09:43:43;-1.40;99.90
28863;DHT22;15994;51.796;13.006;2023-01-19T09:46:15;-1.30;99.90
28863;DHT22;15994;51.796;13.006;2023-01-19T09:48:53;-1.10;99.90
28863;DHT22;15994;51.796;13.006;2023-01-19T09:51:23;-1.20;99.90
28863;DHT22;15994;51.796;13.006;2023-01-19T09:56:21;-1.00;99.90
28863;DHT22;15994;51.796;13.006;2023-01-19T09:58:49;-0.90;99.90
28863;DHT22;15994;51.796;13.006;2023-01-19T10:04:23;-0.90;99.90
28863;DHT22;15994;51.796;13.006;2023-01-19T10:06:56;-0.80;99.90
28863;DHT22;15994;51.796;13.006;2023-01-19T10:09:58;-0.80;99.90
28863;DHT22;15994;51.796;13.006;2023-01-19T10:13:34;-0.70;99.90
28863;DHT22;15994;51.796;13.006;2023-01-19T10:16:12;-0.70;99.90
28863;DHT22;15994;51.796;13.006;2023-01-19T10:18:44;-0.70;99.90
28863;DHT22;15994;51.796;13.006;2023-01-19T10:21:21;-0.60;99.90
28863;DHT22;15994;51.796;13.006;2023-01-19T10:23:56;-0.50;99.90
28863;DHT22;15994;51.796;13.006;2023-01-19T10:28:58;-0.40;99.90
28863;DHT22;15994;51.796;13.006;2023-01-19T10:31:26;-0.30;99.90
28863;DHT22;15994;51.796;13.006;2023-01-19T10:33:53;-0.30;99.90
28863;DHT22;15994;51.796;13.006;2023-01-19T10:36:28;-0.30;99.90
28863;DHT22;15994;51.796;13.006;2023-01-19T10:38:55;-0.20;99.90
28863;DHT22;15994;51.796;13.006;2023-01-19T10:41:48;-0.20;99.90
28863;DHT22;15994;51.796;13.006;2023-01-19T10:44:26;-0.20;99.90
28863;DHT22;15994;51.796;13.006;2023-01-19T10:46:55;-0.10;99.90
28863;DHT22;15994;51.796;13.006;2023-01-19T10:49:27;-0.10;99.90
28863;DHT22;15994;51.796;13.006;2023-01-19T10:51:57;-0.10;99.90
28863;DHT22;15994;51.796;13.006;2023-01-19T10:54:25;0.00;99.90
28863;DHT22;15994;51.796;13.006;2023-01-19T10:56:58;0.00;99.90
28863;DHT22;15994;51.796;13.006;2023-01-19T10:59:51;0.10;99.90
28863;DHT22;15994;51.796;13.006;2023-01-19T11:02:25;0.10;99.90
28863;DHT22;15994;51.796;13.006;2023-01-19T11:04:57;0.10;99.90
28863;DHT22;15994;51.796;13.006;2023-01-19T11:07:32;0.10;99.90
28863;DHT22;15994;51.796;13.006;2023-01-19T11:10:20;0.20;99.90
28863;DHT22;15994;51.796;13.006;2023-01-19T11:13:08;0.20;99.90
28863;DHT22;15994;51.796;13.006;2023-01-19T11:15:53;0.30;99.90
28863;DHT22;15994;51.796;13.006;2023-01-19T11:18:30;0.30;99.90
28863;DHT22;15994;51.796;13.006;2023-01-19T11:21:00;0.40;99.90
28863;DHT22;15994;51.796;13.006;2023-01-19T11:23:32;0.40;99.90
28863;DHT22;15994;51.796;13.006;2023-01-19T11:26:05;0.50;99.90
28863;DHT22;15994;51.796;13.006;2023-01-19T11:28:40;0.50;99.90
28863;DHT22;15994;51.796;13.006;2023-01-19T11:33:47;0.60;99.90
28863;DHT22;15994;51.796;13.006;2023-01-19T11:38:44;0.60;99.90
28863;DHT22;15994;51.796;13.006;2023-01-19T11:41:17;0.70;99.90
28863;DHT22;15994;51.796;13.006;2023-01-19T11:43:44;0.70;99.90
28863;DHT22;15994;51.796;13.006;2023-01-19T11:46:12;0.70;99.90
28863;DHT22;15994;51.796;13.006;2023-01-19T11:48:44;0.70;99.90
28863;DHT22;15994;51.796;13.006;2023-01-19T11:51:15;0.80;99.90
28863;DHT22;15994;51.796;13.006;2023-01-19T11:53:45;0.80;99.90
28863;DHT22;15994;51.796;13.006;2023-01-19T11:56:22;0.90;99.90
28863;DHT22;15994;51.796;13.006;2023-01-19T11:58:49;0.90;99.90
28863;DHT22;15994;51.796;13.006;2023-01-19T12:01:26;0.90;99.90
28863;DHT22;15994;51.796;13.006;2023-01-19T12:04:02;0.90;99.90
28863;DHT22;15994;51.796;13.006;2023-01-19T12:06:30;1.00;99.90
28863;DHT22;15994;51.796;13.006;2023-01-19T12:09:20;1.10;99.90
28863;DHT22;15994;51.796;13.006;2023-01-19T12:11:55;1.10;99.90
28863;DHT22;15994;51.796;13.006;2023-01-19T12:14:32;1.10;99.90
28863;DHT22;15994;51.796;13.006;2023-01-19T12:17:02;1.10;99.90
28863;DHT22;15994;51.796;13.006;2023-01-19T12:19:44;1.20;99.90
28863;DHT22;15994;51.796;13.006;2023-01-19T12:22:20;1.20;99.90
28863;DHT22;15994;51.796;13.006;2023-01-19T12:25:33;1.20;99.90
28863;DHT22;15994;51.796;13.006;2023-01-19T12:27:51;1.30;99.90
28863;DHT22;15994;51.796;13.006;2023-01-19T12:30:27;1.30;99.90
28863;DHT22;15994;51.796;13.006;2023-01-19T12:36:01;1.30;99.90
28863;DHT22;15994;51.796;13.006;2023-01-19T12:39:11;1.30;99.90
28863;DHT22;15994;51.796;13.006;2023-01-19T12:41:41;1.30;99.90
28863;DHT22;15994;51.796;13.006;2023-01-19T12:52:27;1.30;99.90
28863;DHT22;15994;51.796;13.006;2023-01-19T12:57:28;1.30;99.90
28863;DHT22;15994;51.796;13.006;2023-01-19T12:59:57;1.40;99.90
28863;DHT22;15994;51.796;13.006;2023-01-19T13:05:24;1.50;99.90
28863;DHT22;15994;51.796;13.006;2023-01-19T13:11:14;1.50;99.90
28863;DHT22;15994;51.796;13.006;2023-01-19T13:21:28;1.60;99.90
28863;DHT22;15994;51.796;13.006;2023-01-19T13:23:57;1.60;99.90
28863;DHT22;15994;51.796;13.006;2023-01-19T13:26:27;1.60;99.90
28863;DHT22;15994;51.796;13.006;2023-01-19T13:29:02;1.60;99.90
28863;DHT22;15994;51.796;13.006;2023-01-19T13:31:34;1.60;99.90
28863;DHT22;15994;51.796;13.006;2023-01-19T13:34:01;1.60;99.90
28863;DHT22;15994;51.796;13.006;2023-01-19T13:36:32;1.60;99.90
28863;DHT22;15994;51.796;13.006;2023-01-19T13:39:04;1.50;99.90
28863;DHT22;15994;51.796;13.006;2023-01-19T13:41:35;1.50;99.90
28863;DHT22;15994;51.796;13.006;2023-01-19T13:46:35;1.40;99.90
28863;DHT22;15994;51.796;13.006;2023-01-19T13:52:29;1.40;99.90
28863;DHT22;15994;51.796;13.006;2023-01-19T13:55:01;1.40;99.90
28863;DHT22;15994;51.796;13.006;2023-01-19T13:57:41;1.40;99.90
28863;DHT22;15994;51.796;13.006;2023-01-19T14:03:01;1.40;99.90
28863;DHT22;15994;51.796;13.006;2023-01-19T14:05:40;1.30;99.90
28863;DHT22;15994;51.796;13.006;2023-01-19T14:10:38;1.30;99.90
28863;DHT22;15994;51.796;13.006;2023-01-19T14:13:13;1.30;99.90
28863;DHT22;15994;51.796;13.006;2023-01-19T14:15:39;1.40;99.90
28863;DHT22;15994;51.796;13.006;2023-01-19T14:18:08;1.40;99.90
28863;DHT22;15994;51.796;13.006;2023-01-19T14:20:35;1.50;99.90
28863;DHT22;15994;51.796;13.006;2023-01-19T14:23:02;1.60;99.90
28863;DHT22;15994;51.796;13.006;2023-01-19T14:25:34;1.70;99.90
28863;DHT22;15994;51.796;13.006;2023-01-19T14:30:55;1.90;99.90
28863;DHT22;15994;51.796;13.006;2023-01-19T14:33:41;1.90;99.90
28863;DHT22;15994;51.796;13.006;2023-01-19T14:38:50;1.80;99.90
28863;DHT22;15994;51.796;13.006;2023-01-19T14:41:24;1.70;99.90
28863;DHT22;15994;51.796;13.006;2023-01-19T14:43:53;1.60;99.90
28863;DHT22;15994;51.796;13.006;2023-01-19T14:46:20;1.60;99.90
28863;DHT22;15994;51.796;13.006;2023-01-19T14:49:00;1.60;99.90
28863;DHT22;15994;51.796;13.006;2023-01-19T14:51:27;1.60;99.90
28863;DHT22;15994;51.796;13.006;2023-01-19T14:53:55;1.60;99.90
28863;DHT22;15994;51.796;13.006;2023-01-19T14:56:31;1.50;99.90
28863;DHT22;15994;51.796;13.006;2023-01-19T14:59:00;1.50;99.90
28863;DHT22;15994;51.796;13.006;2023-01-19T15:01:27;1.40;99.90
28863;DHT22;15994;51.796;13.006;2023-01-19T15:03:55;1.40;99.90
28863;DHT22;15994;51.796;13.006;2023-01-19T15:06:22;1.30;99.90
28863;DHT22;15994;51.796;13.006;2023-01-19T15:08:50;1.30;99.90
28863;DHT22;15994;51.796;13.006;2023-01-19T15:11:31;1.30;99.90
28863;DHT22;15994;51.796;13.006;2023-01-19T15:13:59;1.20;99.90
28863;DHT22;15994;51.796;13.006;2023-01-19T15:16:28;1.20;99.90
28863;DHT22;15994;51.796;13.006;2023-01-19T15:18:55;1.20;99.90
28863;DHT22;15994;51.796;13.006;2023-01-19T15:21:29;1.20;99.90
28863;DHT22;15994;51.796;13.006;2023-01-19T15:23:56;1.10;99.90
28863;DHT22;15994;51.796;13.006;2023-01-19T15:26:24;1.10;99.90
28863;DHT22;15994;51.796;13.006;2023-01-19T15:28:52;1.10;99.90
28863;DHT22;15994;51.796;13.006;2023-01-19T15:31:21;1.10;99.90
28863;DHT22;15994;51.796;13.006;2023-01-19T15:33:48;1.10;99.90
28863;DHT22;15994;51.796;13.006;2023-01-19T15:36:20;1.00;99.90
28863;DHT22;15994;51.796;13.006;2023-01-19T15:38:48;0.90;99.90
28863;DHT22;15994;51.796;13.006;2023-01-19T15:41:22;0.90;99.90
28863;DHT22;15994;51.796;13.006;2023-01-19T15:43:49;0.90;99.90
28863;DHT22;15994;51.796;13.006;2023-01-19T15:46:19;0.90;99.90
28863;DHT22;15994;51.796;13.006;2023-01-19T15:48:46;0.90;99.90
28863;DHT22;15994;51.796;13.006;2023-01-19T15:51:15;0.90;99.90
28863;DHT22;15994;51.796;13.006;2023-01-19T15:53:42;0.90;99.90
28863;DHT22;15994;51.796;13.006;2023-01-19T15:56:18;0.90;99.90
28863;DHT22;15994;51.796;13.006;2023-01-19T15:58:45;0.90;99.90
28863;DHT22;15994;51.796;13.006;2023-01-19T16:01:23;1.00;99.90
28863;DHT22;15994;51.796;13.006;2023-01-19T16:03:56;1.00;99.90
28863;DHT22;15994;51.796;13.006;2023-01-19T16:06:23;1.10;99.90
28863;DHT22;15994;51.796;13.006;2023-01-19T16:08:50;1.20;99.90
28863;DHT22;15994;51.796;13.006;2023-01-19T16:11:16;1.10;99.90
28863;DHT22;15994;51.796;13.006;2023-01-19T16:13:44;1.20;99.90
28863;DHT22;15994;51.796;13.006;2023-01-19T16:16:16;1.20;99.90
28863;DHT22;15994;51.796;13.006;2023-01-19T16:18:43;1.20;99.90
28863;DHT22;15994;51.796;13.006;2023-01-19T16:21:10;1.20;99.90
28863;DHT22;15994;51.796;13.006;2023-01-19T16:23:37;1.20;99.90
28863;DHT22;15994;51.796;13.006;2023-01-19T16:26:06;1.20;99.90
28863;DHT22;15994;51.796;13.006;2023-01-19T16:28:35;1.30;99.90
28863;DHT22;15994;51.796;13.006;2023-01-19T16:31:02;1.30;99.90
28863;DHT22;15994;51.796;13.006;2023-01-19T16:33:29;1.40;99.90
28863;DHT22;15994;51.796;13.006;2023-01-19T16:35:55;1.40;99.90
28863;DHT22;15994;51.796;13.006;2023-01-19T16:38:22;1.40;99.90
28863;DHT22;15994;51.796;13.006;2023-01-19T16:40:49;1.40;99.90
28863;DHT22;15994;51.796;13.006;2023-01-19T16:43:15;1.40;99.90
28863;DHT22;15994;51.796;13.006;2023-01-19T16:46:00;1.30;99.90
28863;DHT22;15994;51.796;13.006;2023-01-19T16:48:27;1.30;99.90
28863;DHT22;15994;51.796;13.006;2023-01-19T16:50:59;1.20;99.90